sensor_id;sensor_type;location;lat;lon;timestamp;P1;durP1;ratioP1;P2;durP2;ratioP2
38435;SDS011;24220;48.168;14.024;2023-05-07T00:01:23;7.28;;;5.82;;
38435;SDS011;24220;48.168;14.024;2023-05-07T00:03:52;7.07;;;5.68;;
38435;SDS011;24220;48.168;14.024;2023-05-07T00:06:22;6.32;;;5.72;;
38435;SDS011;24220;48.168;14.024;2023-05-07T00:08:50;6.63;;;5.70;;
38435;SDS011;24220;48.168;14.024;2023-05-07T00:11:18;5.82;;;5.25;;
38435;SDS011;24220;48.168;14.024;2023-05-07T00:13:47;6.05;;;5.45;;
38435;SDS011;24220;48.168;14.024;2023-05-07T00:16:15;6.72;;;5.30;;
38435;SDS011;24220;48.168;14.024;2023-05-07T00:18:42;7.90;;;5.78;;
38435;SDS011;24220;48.168;14.024;2023-05-07T00:21:12;7.80;;;5.32;;
38435;SDS011;24220;48.168;14.024;2023-05-07T00:23:39;6.45;;;5.47;;
38435;SDS011;24220;48.168;14.024;2023-05-07T00:26:12;6.22;;;5.47;;
38435;SDS011;24220;48.168;14.024;2023-05-07T00:28:44;5.82;;;5.22;;
38435;SDS011;24220;48.168;14.024;2023-05-07T00:31:11;5.60;;;5.10;;
38435;SDS011;24220;48.168;14.024;2023-05-07T00:33:38;7.30;;;5.10;;
38435;SDS011;24220;48.168;14.024;2023-05-07T00:36:06;7.05;;;5.72;;
38435;SDS011;24220;48.168;14.024;2023-05-07T00:38:36;5.90;;;5.30;;
38435;SDS011;24220;48.168;14.024;2023-05-07T00:41:03;6.15;;;5.15;;
38435;SDS011;24220;48.168;14.024;2023-05-07T00:43:33;7.22;;;5.95;;
38435;SDS011;24220;48.168;14.024;2023-05-07T00:46:00;5.63;;;5.13;;
38435;SDS011;24220;48.168;14.024;2023-05-07T00:48:30;5.65;;;4.90;;
38435;SDS011;24220;48.168;14.024;2023-05-07T00:50:58;7.70;;;5.60;;
38435;SDS011;24220;48.168;14.024;2023-05-07T00:53:26;6.20;;;5.60;;
38435;SDS011;24220;48.168;14.024;2023-05-07T00:55:54;6.13;;;5.53;;
38435;SDS011;24220;48.168;14.024;2023-05-07T00:58:24;5.72;;;5.22;;
38435;SDS011;24220;48.168;14.024;2023-05-07T01:00:51;5.95;;;4.97;;
38435;SDS011;24220;48.168;14.024;2023-05-07T01:03:19;6.35;;;5.25;;
38435;SDS011;24220;48.168;14.024;2023-05-07T01:05:48;6.25;;;5.25;;
38435;SDS011;24220;48.168;14.024;2023-05-07T01:08:17;5.65;;;4.60;;
38435;SDS011;24220;48.168;14.024;2023-05-07T01:10:45;5.60;;;5.10;;
38435;SDS011;24220;48.168;14.024;2023-05-07T01:13:16;4.83;;;4.33;;
38435;SDS011;24220;48.168;14.024;2023-05-07T01:15:45;5.32;;;4.82;;
38435;SDS011;24220;48.168;14.024;2023-05-07T01:18:13;5.40;;;4.90;;
38435;SDS011;24220;48.168;14.024;2023-05-07T01:20:43;7.30;;;4.72;;
38435;SDS011;24220;48.168;14.024;2023-05-07T01:23:10;5.25;;;4.65;;
38435;SDS011;24220;48.168;14.024;2023-05-07T01:25:38;6.93;;;4.82;;
38435;SDS011;24220;48.168;14.024;2023-05-07T01:28:06;5.55;;;4.55;;
38435;SDS011;24220;48.168;14.024;2023-05-07T01:30:33;5.90;;;4.60;;
38435;SDS011;24220;48.168;14.024;2023-05-07T01:33:04;4.32;;;3.92;;
38435;SDS011;24220;48.168;14.024;2023-05-07T01:35:38;5.00;;;4.53;;
38435;SDS011;24220;48.168;14.024;2023-05-07T01:38:08;4.50;;;4.10;;
38435;SDS011;24220;48.168;14.024;2023-05-07T01:40:36;4.40;;;4.00;;
38435;SDS011;24220;48.168;14.024;2023-05-07T01:43:03;4.43;;;4.03;;
38435;SDS011;24220;48.168;14.024;2023-05-07T01:45:32;7.55;;;3.97;;
38435;SDS011;24220;48.168;14.024;2023-05-07T01:48:01;4.13;;;3.83;;
38435;SDS011;24220;48.168;14.024;2023-05-07T01:50:29;4.50;;;4.10;;
38435;SDS011;24220;48.168;14.024;2023-05-07T01:52:58;5.43;;;4.25;;
38435;SDS011;24220;48.168;14.024;2023-05-07T01:55:26;5.82;;;4.35;;
38435;SDS011;24220;48.168;14.024;2023-05-07T01:57:53;4.97;;;4.18;;
38435;SDS011;24220;48.168;14.024;2023-05-07T02:00:20;6.75;;;4.65;;
38435;SDS011;24220;48.168;14.024;2023-05-07T02:02:53;4.87;;;4.20;;
38435;SDS011;24220;48.168;14.024;2023-05-07T02:05:23;5.68;;;3.90;;
38435;SDS011;24220;48.168;14.024;2023-05-07T02:07:50;5.72;;;4.18;;
38435;SDS011;24220;48.168;14.024;2023-05-07T02:10:18;4.60;;;4.10;;
38435;SDS011;24220;48.168;14.024;2023-05-07T02:12:45;4.28;;;3.88;;
38435;SDS011;24220;48.168;14.024;2023-05-07T02:15:12;4.60;;;4.20;;
38435;SDS011;24220;48.168;14.024;2023-05-07T02:17:57;4.43;;;3.97;;
38435;SDS011;24220;48.168;14.024;2023-05-07T02:20:33;4.63;;;4.07;;
38435;SDS011;24220;48.168;14.024;2023-05-07T02:23:02;4.97;;;4.25;;
38435;SDS011;24220;48.168;14.024;2023-05-07T02:25:32;5.68;;;3.88;;
38435;SDS011;24220;48.168;14.024;2023-05-07T02:27:59;4.50;;;4.10;;
38435;SDS011;24220;48.168;14.024;2023-05-07T02:30:27;4.13;;;3.58;;
38435;SDS011;24220;48.168;14.024;2023-05-07T02:32:57;5.03;;;4.38;;
38435;SDS011;24220;48.168;14.024;2023-05-07T02:35:25;4.90;;;4.20;;
38435;SDS011;24220;48.168;14.024;2023-05-07T02:37:52;4.15;;;3.58;;
38435;SDS011;24220;48.168;14.024;2023-05-07T02:40:22;4.53;;;4.10;;
38435;SDS011;24220;48.168;14.024;2023-05-07T02:42:49;4.45;;;3.85;;
38435;SDS011;24220;48.168;14.024;2023-05-07T02:45:17;5.47;;;4.00;;
38435;SDS011;24220;48.168;14.024;2023-05-07T02:47:44;4.13;;;3.72;;
38435;SDS011;24220;48.168;14.024;2023-05-07T02:50:11;3.92;;;3.63;;
38435;SDS011;24220;48.168;14.024;2023-05-07T02:52:39;4.95;;;4.47;;
38435;SDS011;24220;48.168;14.024;2023-05-07T02:55:07;4.35;;;3.60;;
38435;SDS011;24220;48.168;14.024;2023-05-07T02:57:34;4.75;;;3.90;;
38435;SDS011;24220;48.168;14.024;2023-05-07T03:00:17;4.68;;;4.25;;
38435;SDS011;24220;48.168;14.024;2023-05-07T03:02:45;4.88;;;4.30;;
38435;SDS011;24220;48.168;14.024;2023-05-07T03:05:12;5.05;;;4.00;;
38435;SDS011;24220;48.168;14.024;2023-05-07T03:07:43;4.68;;;4.25;;
38435;SDS011;24220;48.168;14.024;2023-05-07T03:10:14;4.80;;;4.30;;
38435;SDS011;24220;48.168;14.024;2023-05-07T03:12:41;5.47;;;4.13;;
38435;SDS011;24220;48.168;14.024;2023-05-07T03:15:09;4.03;;;3.63;;
38435;SDS011;24220;48.168;14.024;2023-05-07T03:17:38;4.13;;;3.72;;
38435;SDS011;24220;48.168;14.024;2023-05-07T03:20:05;5.70;;;4.50;;
38435;SDS011;24220;48.168;14.024;2023-05-07T03:22:34;4.15;;;3.75;;
38435;SDS011;24220;48.168;14.024;2023-05-07T03:25:03;4.50;;;4.10;;
38435;SDS011;24220;48.168;14.024;2023-05-07T03:27:31;5.15;;;3.70;;
38435;SDS011;24220;48.168;14.024;2023-05-07T03:30:01;4.47;;;3.63;;
38435;SDS011;24220;48.168;14.024;2023-05-07T03:32:30;4.47;;;4.07;;
38435;SDS011;24220;48.168;14.024;2023-05-07T03:34:58;4.30;;;3.90;;
38435;SDS011;24220;48.168;14.024;2023-05-07T03:37:27;3.83;;;3.42;;
38435;SDS011;24220;48.168;14.024;2023-05-07T03:39:55;4.78;;;4.05;;
38435;SDS011;24220;48.168;14.024;2023-05-07T03:42:22;4.40;;;4.00;;
38435;SDS011;24220;48.168;14.024;2023-05-07T03:44:52;4.50;;;3.83;;
38435;SDS011;24220;48.168;14.024;2023-05-07T03:47:19;4.38;;;3.97;;
38435;SDS011;24220;48.168;14.024;2023-05-07T03:49:49;4.78;;;4.20;;
38435;SDS011;24220;48.168;14.024;2023-05-07T03:52:19;4.35;;;3.92;;
38435;SDS011;24220;48.168;14.024;2023-05-07T03:54:50;5.03;;;4.00;;
38435;SDS011;24220;48.168;14.024;2023-05-07T03:57:20;4.63;;;3.67;;
38435;SDS011;24220;48.168;14.024;2023-05-07T03:59:49;4.57;;;3.60;;
38435;SDS011;24220;48.168;14.024;2023-05-07T04:02:17;5.18;;;3.90;;
38435;SDS011;24220;48.168;14.024;2023-05-07T04:04:48;6.20;;;3.75;;
38435;SDS011;24220;48.168;14.024;2023-05-07T04:07:16;4.00;;;3.60;;
38435;SDS011;24220;48.168;14.024;2023-05-07T04:09:45;4.15;;;3.60;;
38435;SDS011;24220;48.168;14.024;2023-05-07T04:12:12;3.95;;;2.88;;
38435;SDS011;24220;48.168;14.024;2023-05-07T04:14:42;3.70;;;3.22;;
38435;SDS011;24220;48.168;14.024;2023-05-07T04:17:09;3.90;;;3.50;;
38435;SDS011;24220;48.168;14.024;2023-05-07T04:19:39;4.93;;;3.50;;
38435;SDS011;24220;48.168;14.024;2023-05-07T04:22:06;4.80;;;3.60;;
38435;SDS011;24220;48.168;14.024;2023-05-07T04:24:36;7.53;;;3.55;;
38435;SDS011;24220;48.168;14.024;2023-05-07T04:27:03;4.25;;;3.83;;
38435;SDS011;24220;48.168;14.024;2023-05-07T04:29:31;4.43;;;3.83;;
38435;SDS011;24220;48.168;14.024;2023-05-07T04:31:58;4.07;;;3.67;;
38435;SDS011;24220;48.168;14.024;2023-05-07T04:34:28;3.85;;;3.47;;
38435;SDS011;24220;48.168;14.024;2023-05-07T04:36:57;5.53;;;3.90;;
38435;SDS011;24220;48.168;14.024;2023-05-07T04:39:28;4.00;;;3.67;;
38435;SDS011;24220;48.168;14.024;2023-05-07T04:41:55;5.25;;;3.90;;
38435;SDS011;24220;48.168;14.024;2023-05-07T04:44:22;5.00;;;3.88;;
38435;SDS011;24220;48.168;14.024;2023-05-07T04:46:50;4.20;;;3.80;;
38435;SDS011;24220;48.168;14.024;2023-05-07T04:49:19;4.63;;;3.80;;
38435;SDS011;24220;48.168;14.024;2023-05-07T04:51:47;6.78;;;4.10;;
38435;SDS011;24220;48.168;14.024;2023-05-07T04:54:14;4.85;;;4.32;;
38435;SDS011;24220;48.168;14.024;2023-05-07T04:56:41;5.28;;;4.78;;
38435;SDS011;24220;48.168;14.024;2023-05-07T04:59:09;5.00;;;4.55;;
38435;SDS011;24220;48.168;14.024;2023-05-07T05:01:36;4.43;;;4.03;;
38435;SDS011;24220;48.168;14.024;2023-05-07T05:04:04;4.38;;;3.92;;
38435;SDS011;24220;48.168;14.024;2023-05-07T05:06:34;4.72;;;4.32;;
38435;SDS011;24220;48.168;14.024;2023-05-07T05:09:02;4.53;;;4.10;;
38435;SDS011;24220;48.168;14.024;2023-05-07T05:11:33;3.70;;;3.40;;
38435;SDS011;24220;48.168;14.024;2023-05-07T05:14:01;3.80;;;3.50;;
38435;SDS011;24220;48.168;14.024;2023-05-07T05:16:28;3.65;;;3.35;;
38435;SDS011;24220;48.168;14.024;2023-05-07T05:18:55;5.10;;;3.33;;
38435;SDS011;24220;48.168;14.024;2023-05-07T05:21:23;3.83;;;3.53;;
38435;SDS011;24220;48.168;14.024;2023-05-07T05:23:53;3.97;;;3.58;;
38435;SDS011;24220;48.168;14.024;2023-05-07T05:26:23;3.92;;;3.53;;
38435;SDS011;24220;48.168;14.024;2023-05-07T05:28:52;3.63;;;3.33;;
38435;SDS011;24220;48.168;14.024;2023-05-07T05:31:19;4.90;;;3.83;;
38435;SDS011;24220;48.168;14.024;2023-05-07T05:33:50;4.53;;;3.78;;
38435;SDS011;24220;48.168;14.024;2023-05-07T05:36:17;5.22;;;3.90;;
38435;SDS011;24220;48.168;14.024;2023-05-07T05:38:47;4.43;;;4.03;;
38435;SDS011;24220;48.168;14.024;2023-05-07T05:41:14;4.72;;;4.22;;
38435;SDS011;24220;48.168;14.024;2023-05-07T05:43:42;4.20;;;3.80;;
38435;SDS011;24220;48.168;14.024;2023-05-07T05:46:09;4.63;;;3.90;;
38435;SDS011;24220;48.168;14.024;2023-05-07T05:48:40;5.25;;;4.50;;
38435;SDS011;24220;48.168;14.024;2023-05-07T05:51:08;4.90;;;4.28;;
38435;SDS011;24220;48.168;14.024;2023-05-07T05:53:35;4.50;;;4.10;;
38435;SDS011;24220;48.168;14.024;2023-05-07T05:56:02;4.35;;;3.95;;
38435;SDS011;24220;48.168;14.024;2023-05-07T05:58:30;4.82;;;4.28;;
38435;SDS011;24220;48.168;14.024;2023-05-07T06:01:00;4.15;;;3.80;;
38435;SDS011;24220;48.168;14.024;2023-05-07T06:03:29;4.53;;;4.00;;
38435;SDS011;24220;48.168;14.024;2023-05-07T06:05:56;4.88;;;3.88;;
38435;SDS011;24220;48.168;14.024;2023-05-07T06:08:28;4.60;;;4.05;;
38435;SDS011;24220;48.168;14.024;2023-05-07T06:10:56;5.45;;;4.43;;
38435;SDS011;24220;48.168;14.024;2023-05-07T06:13:23;4.32;;;3.92;;
38435;SDS011;24220;48.168;14.024;2023-05-07T06:15:52;5.85;;;4.50;;
38435;SDS011;24220;48.168;14.024;2023-05-07T06:18:19;5.47;;;4.88;;
38435;SDS011;24220;48.168;14.024;2023-05-07T06:20:47;5.35;;;4.60;;
38435;SDS011;24220;48.168;14.024;2023-05-07T06:23:14;5.15;;;4.65;;
38435;SDS011;24220;48.168;14.024;2023-05-07T06:25:49;4.82;;;4.32;;
38435;SDS011;24220;48.168;14.024;2023-05-07T06:28:17;6.75;;;4.53;;
38435;SDS011;24220;48.168;14.024;2023-05-07T06:30:45;5.03;;;4.53;;
38435;SDS011;24220;48.168;14.024;2023-05-07T06:33:12;4.60;;;4.20;;
38435;SDS011;24220;48.168;14.024;2023-05-07T06:35:42;4.88;;;4.40;;
38435;SDS011;24220;48.168;14.024;2023-05-07T06:38:09;7.20;;;5.32;;
38435;SDS011;24220;48.168;14.024;2023-05-07T06:40:40;5.55;;;4.70;;
38435;SDS011;24220;48.168;14.024;2023-05-07T06:43:07;6.35;;;5.45;;
38435;SDS011;24220;48.168;14.024;2023-05-07T06:45:34;6.95;;;5.45;;
38435;SDS011;24220;48.168;14.024;2023-05-07T06:48:02;5.93;;;5.30;;
38435;SDS011;24220;48.168;14.024;2023-05-07T06:50:29;8.80;;;5.38;;
38435;SDS011;24220;48.168;14.024;2023-05-07T06:52:57;5.60;;;5.07;;
38435;SDS011;24220;48.168;14.024;2023-05-07T06:55:26;5.68;;;4.85;;
38435;SDS011;24220;48.168;14.024;2023-05-07T06:57:53;6.40;;;5.80;;
38435;SDS011;24220;48.168;14.024;2023-05-07T07:00:21;7.57;;;5.63;;
38435;SDS011;24220;48.168;14.024;2023-05-07T07:02:50;6.72;;;6.05;;
38435;SDS011;24220;48.168;14.024;2023-05-07T07:05:20;6.88;;;6.18;;
38435;SDS011;24220;48.168;14.024;2023-05-07T07:07:50;6.90;;;6.25;;
38435;SDS011;24220;48.168;14.024;2023-05-07T07:10:20;7.22;;;5.90;;
38435;SDS011;24220;48.168;14.024;2023-05-07T07:12:47;7.55;;;6.80;;
38435;SDS011;24220;48.168;14.024;2023-05-07T07:15:15;7.47;;;6.35;;
38435;SDS011;24220;48.168;14.024;2023-05-07T07:17:47;7.18;;;5.90;;
38435;SDS011;24220;48.168;14.024;2023-05-07T07:20:15;7.20;;;5.85;;
38435;SDS011;24220;48.168;14.024;2023-05-07T07:22:43;6.53;;;5.85;;
38435;SDS011;24220;48.168;14.024;2023-05-07T07:25:10;7.70;;;6.18;;
38435;SDS011;24220;48.168;14.024;2023-05-07T07:27:40;6.25;;;5.65;;
38435;SDS011;24220;48.168;14.024;2023-05-07T07:30:07;10.02;;;6.60;;
38435;SDS011;24220;48.168;14.024;2023-05-07T07:32:35;8.23;;;6.47;;
38435;SDS011;24220;48.168;14.024;2023-05-07T07:35:04;6.50;;;5.80;;
38435;SDS011;24220;48.168;14.024;2023-05-07T07:37:32;9.35;;;6.53;;
38435;SDS011;24220;48.168;14.024;2023-05-07T07:40:01;7.20;;;6.50;;
38435;SDS011;24220;48.168;14.024;2023-05-07T07:42:31;8.82;;;6.85;;
38435;SDS011;24220;48.168;14.024;2023-05-07T07:45:00;8.23;;;7.40;;
38435;SDS011;24220;48.168;14.024;2023-05-07T07:47:28;8.40;;;7.53;;
38435;SDS011;24220;48.168;14.024;2023-05-07T07:49:55;7.78;;;6.78;;
38435;SDS011;24220;48.168;14.024;2023-05-07T07:52:23;7.15;;;6.28;;
38435;SDS011;24220;48.168;14.024;2023-05-07T07:54:53;7.68;;;6.60;;
38435;SDS011;24220;48.168;14.024;2023-05-07T07:57:20;7.78;;;6.68;;
38435;SDS011;24220;48.168;14.024;2023-05-07T07:59:47;7.80;;;6.70;;
38435;SDS011;24220;48.168;14.024;2023-05-07T08:02:14;7.30;;;6.60;;
38435;SDS011;24220;48.168;14.024;2023-05-07T08:04:42;8.23;;;7.10;;
38435;SDS011;24220;48.168;14.024;2023-05-07T08:07:12;7.07;;;6.20;;
38435;SDS011;24220;48.168;14.024;2023-05-07T08:09:40;8.38;;;6.43;;
38435;SDS011;24220;48.168;14.024;2023-05-07T08:12:07;7.85;;;7.05;;
38435;SDS011;24220;48.168;14.024;2023-05-07T08:14:34;8.23;;;6.53;;
38435;SDS011;24220;48.168;14.024;2023-05-07T08:17:06;7.03;;;6.28;;
38435;SDS011;24220;48.168;14.024;2023-05-07T08:19:36;7.07;;;6.38;;
38435;SDS011;24220;48.168;14.024;2023-05-07T08:22:06;6.78;;;5.68;;
38435;SDS011;24220;48.168;14.024;2023-05-07T08:24:33;7.55;;;6.47;;
38435;SDS011;24220;48.168;14.024;2023-05-07T08:27:02;8.35;;;6.30;;
38435;SDS011;24220;48.168;14.024;2023-05-07T08:29:30;8.25;;;7.13;;
38435;SDS011;24220;48.168;14.024;2023-05-07T08:31:59;7.93;;;5.88;;
38435;SDS011;24220;48.168;14.024;2023-05-07T08:34:29;7.82;;;6.25;;
38435;SDS011;24220;48.168;14.024;2023-05-07T08:36:59;6.47;;;5.82;;
38435;SDS011;24220;48.168;14.024;2023-05-07T08:39:30;6.72;;;6.03;;
38435;SDS011;24220;48.168;14.024;2023-05-07T08:41:57;6.90;;;6.30;;
38435;SDS011;24220;48.168;14.024;2023-05-07T08:44:34;7.22;;;6.45;;
38435;SDS011;24220;48.168;14.024;2023-05-07T08:47:02;8.45;;;7.15;;
38435;SDS011;24220;48.168;14.024;2023-05-07T08:49:29;6.60;;;5.97;;
38435;SDS011;24220;48.168;14.024;2023-05-07T08:51:56;7.70;;;6.90;;
38435;SDS011;24220;48.168;14.024;2023-05-07T08:54:27;7.38;;;6.63;;
38435;SDS011;24220;48.168;14.024;2023-05-07T08:56:55;7.60;;;6.63;;
38435;SDS011;24220;48.168;14.024;2023-05-07T08:59:26;6.28;;;5.68;;
38435;SDS011;24220;48.168;14.024;2023-05-07T09:01:58;6.28;;;5.68;;
38435;SDS011;24220;48.168;14.024;2023-05-07T09:04:27;7.30;;;5.88;;
38435;SDS011;24220;48.168;14.024;2023-05-07T09:06:55;7.35;;;6.25;;
38435;SDS011;24220;48.168;14.024;2023-05-07T09:09:25;6.40;;;5.80;;
38435;SDS011;24220;48.168;14.024;2023-05-07T09:11:59;6.57;;;5.88;;
38435;SDS011;24220;48.168;14.024;2023-05-07T09:14:30;6.30;;;5.68;;
38435;SDS011;24220;48.168;14.024;2023-05-07T09:17:00;6.65;;;5.50;;
38435;SDS011;24220;48.168;14.024;2023-05-07T09:19:30;6.68;;;6.03;;
38435;SDS011;24220;48.168;14.024;2023-05-07T09:22:02;7.72;;;5.75;;
38435;SDS011;24220;48.168;14.024;2023-05-07T09:27:03;6.28;;;5.55;;
38435;SDS011;24220;48.168;14.024;2023-05-07T09:29:40;5.90;;;5.30;;
38435;SDS011;24220;48.168;14.024;2023-05-07T09:32:12;6.65;;;5.75;;
38435;SDS011;24220;48.168;14.024;2023-05-07T09:34:43;6.40;;;5.80;;
38435;SDS011;24220;48.168;14.024;2023-05-07T09:37:12;6.47;;;5.55;;
38435;SDS011;24220;48.168;14.024;2023-05-07T09:39:44;6.97;;;5.72;;
38435;SDS011;24220;48.168;14.024;2023-05-07T09:42:14;6.03;;;5.05;;
38435;SDS011;24220;48.168;14.024;2023-05-07T09:44:43;6.35;;;5.53;;
38435;SDS011;24220;48.168;14.024;2023-05-07T09:47:11;6.30;;;5.68;;
38435;SDS011;24220;48.168;14.024;2023-05-07T09:49:43;5.75;;;4.65;;
38435;SDS011;24220;48.168;14.024;2023-05-07T09:52:16;7.20;;;6.18;;
38435;SDS011;24220;48.168;14.024;2023-05-07T09:54:44;6.05;;;5.45;;
38435;SDS011;24220;48.168;14.024;2023-05-07T09:57:16;6.45;;;5.13;;
38435;SDS011;24220;48.168;14.024;2023-05-07T09:59:45;4.57;;;4.18;;
38435;SDS011;24220;48.168;14.024;2023-05-07T10:02:15;5.47;;;4.30;;
38435;SDS011;24220;48.168;14.024;2023-05-07T10:04:46;4.55;;;4.15;;
38435;SDS011;24220;48.168;14.024;2023-05-07T10:07:14;5.78;;;4.38;;
38435;SDS011;24220;48.168;14.024;2023-05-07T10:09:43;5.43;;;4.63;;
38435;SDS011;24220;48.168;14.024;2023-05-07T10:12:14;5.75;;;5.00;;
38435;SDS011;24220;48.168;14.024;2023-05-07T10:14:45;8.23;;;5.45;;
38435;SDS011;24220;48.168;14.024;2023-05-07T10:17:16;6.28;;;4.97;;
38435;SDS011;24220;48.168;14.024;2023-05-07T10:19:46;5.93;;;5.22;;
38435;SDS011;24220;48.168;14.024;2023-05-07T10:22:13;6.13;;;4.97;;
38435;SDS011;24220;48.168;14.024;2023-05-07T10:24:43;5.13;;;4.63;;
38435;SDS011;24220;48.168;14.024;2023-05-07T10:27:15;6.13;;;4.53;;
38435;SDS011;24220;48.168;14.024;2023-05-07T10:32:48;5.22;;;4.72;;
38435;SDS011;24220;48.168;14.024;2023-05-07T10:35:19;6.72;;;4.82;;
38435;SDS011;24220;48.168;14.024;2023-05-07T10:37:54;5.32;;;4.10;;
38435;SDS011;24220;48.168;14.024;2023-05-07T10:40:23;5.22;;;3.80;;
38435;SDS011;24220;48.168;14.024;2023-05-07T10:42:55;4.05;;;3.72;;
38435;SDS011;24220;48.168;14.024;2023-05-07T10:45:26;4.22;;;3.15;;
38435;SDS011;24220;48.168;14.024;2023-05-07T10:48:12;4.93;;;4.10;;
38435;SDS011;24220;48.168;14.024;2023-05-07T10:51:18;4.03;;;3.63;;
38435;SDS011;24220;48.168;14.024;2023-05-07T10:53:48;5.40;;;3.80;;
38435;SDS011;24220;48.168;14.024;2023-05-07T10:56:44;4.53;;;3.88;;
38435;SDS011;24220;48.168;14.024;2023-05-07T11:04:19;5.63;;;4.32;;
38435;SDS011;24220;48.168;14.024;2023-05-07T11:15:10;4.53;;;3.45;;
38435;SDS011;24220;48.168;14.024;2023-05-07T11:17:56;4.18;;;3.28;;
38435;SDS011;24220;48.168;14.024;2023-05-07T11:26:03;4.55;;;3.72;;
38435;SDS011;24220;48.168;14.024;2023-05-07T11:28:37;3.22;;;2.88;;
38435;SDS011;24220;48.168;14.024;2023-05-07T11:31:10;4.85;;;3.20;;
38435;SDS011;24220;48.168;14.024;2023-05-07T11:33:40;3.72;;;3.38;;
38435;SDS011;24220;48.168;14.024;2023-05-07T11:36:11;3.20;;;2.90;;
38435;SDS011;24220;48.168;14.024;2023-05-07T11:38:39;4.47;;;3.50;;
38435;SDS011;24220;48.168;14.024;2023-05-07T11:41:07;3.20;;;2.88;;
38435;SDS011;24220;48.168;14.024;2023-05-07T11:43:37;4.00;;;3.00;;
38435;SDS011;24220;48.168;14.024;2023-05-07T11:46:20;3.38;;;3.08;;
38435;SDS011;24220;48.168;14.024;2023-05-07T11:48:48;3.10;;;2.80;;
38435;SDS011;24220;48.168;14.024;2023-05-07T11:51:18;2.88;;;2.65;;
38435;SDS011;24220;48.168;14.024;2023-05-07T11:53:47;3.17;;;2.67;;
38435;SDS011;24220;48.168;14.024;2023-05-07T11:56:16;4.22;;;2.70;;
38435;SDS011;24220;48.168;14.024;2023-05-07T11:58:49;3.17;;;2.63;;
38435;SDS011;24220;48.168;14.024;2023-05-07T12:01:18;3.97;;;3.05;;
38435;SDS011;24220;48.168;14.024;2023-05-07T12:03:48;3.97;;;2.90;;
38435;SDS011;24220;48.168;14.024;2023-05-07T12:06:18;3.15;;;2.80;;
38435;SDS011;24220;48.168;14.024;2023-05-07T12:08:45;2.60;;;2.20;;
38435;SDS011;24220;48.168;14.024;2023-05-07T12:11:15;3.40;;;2.50;;
38435;SDS011;24220;48.168;14.024;2023-05-07T12:16:13;3.33;;;2.35;;
38435;SDS011;24220;48.168;14.024;2023-05-07T12:18:41;2.80;;;2.30;;
38435;SDS011;24220;48.168;14.024;2023-05-07T12:21:09;2.83;;;2.55;;
38435;SDS011;24220;48.168;14.024;2023-05-07T12:23:39;2.50;;;2.30;;
38435;SDS011;24220;48.168;14.024;2023-05-07T12:26:07;2.30;;;2.10;;
38435;SDS011;24220;48.168;14.024;2023-05-07T12:28:38;3.50;;;2.45;;
38435;SDS011;24220;48.168;14.024;2023-05-07T12:31:05;2.58;;;2.33;;
38435;SDS011;24220;48.168;14.024;2023-05-07T12:33:34;2.60;;;2.35;;
38435;SDS011;24220;48.168;14.024;2023-05-07T12:36:03;2.47;;;2.28;;
38435;SDS011;24220;48.168;14.024;2023-05-07T12:38:34;2.67;;;2.47;;
38435;SDS011;24220;48.168;14.024;2023-05-07T12:41:06;2.30;;;2.10;;
38435;SDS011;24220;48.168;14.024;2023-05-07T12:43:44;2.50;;;2.20;;
38435;SDS011;24220;48.168;14.024;2023-05-07T12:46:14;2.85;;;2.30;;
38435;SDS011;24220;48.168;14.024;2023-05-07T12:52:11;2.33;;;2.13;;
38435;SDS011;24220;48.168;14.024;2023-05-07T12:54:38;2.40;;;2.20;;
38435;SDS011;24220;48.168;14.024;2023-05-07T12:57:10;2.75;;;2.30;;
38435;SDS011;24220;48.168;14.024;2023-05-07T12:59:40;3.53;;;2.80;;
38435;SDS011;24220;48.168;14.024;2023-05-07T13:02:11;3.03;;;2.33;;
38435;SDS011;24220;48.168;14.024;2023-05-07T13:04:43;2.40;;;2.10;;
38435;SDS011;24220;48.168;14.024;2023-05-07T13:07:10;2.25;;;1.70;;
38435;SDS011;24220;48.168;14.024;2023-05-07T13:09:37;2.53;;;1.80;;
38435;SDS011;24220;48.168;14.024;2023-05-07T13:14:36;2.30;;;2.10;;
38435;SDS011;24220;48.168;14.024;2023-05-07T13:17:05;2.25;;;2.05;;
38435;SDS011;24220;48.168;14.024;2023-05-07T13:19:32;3.38;;;1.98;;
38435;SDS011;24220;48.168;14.024;2023-05-07T13:22:00;1.95;;;1.75;;
38435;SDS011;24220;48.168;14.024;2023-05-07T13:24:27;2.33;;;1.77;;
38435;SDS011;24220;48.168;14.024;2023-05-07T13:26:57;2.60;;;1.92;;
38435;SDS011;24220;48.168;14.024;2023-05-07T13:29:24;2.67;;;2.15;;
38435;SDS011;24220;48.168;14.024;2023-05-07T13:32:00;2.60;;;2.20;;
38435;SDS011;24220;48.168;14.024;2023-05-07T13:34:28;2.40;;;2.20;;
38435;SDS011;24220;48.168;14.024;2023-05-07T13:36:55;3.08;;;2.67;;
38435;SDS011;24220;48.168;14.024;2023-05-07T13:39:22;3.55;;;2.53;;
38435;SDS011;24220;48.168;14.024;2023-05-07T13:41:50;2.42;;;2.20;;
38435;SDS011;24220;48.168;14.024;2023-05-07T13:44:17;2.95;;;2.45;;
38435;SDS011;24220;48.168;14.024;2023-05-07T13:46:44;3.35;;;2.42;;
38435;SDS011;24220;48.168;14.024;2023-05-07T13:49:14;3.08;;;2.78;;
38435;SDS011;24220;48.168;14.024;2023-05-07T13:51:41;2.80;;;2.47;;
38435;SDS011;24220;48.168;14.024;2023-05-07T13:54:08;2.70;;;2.30;;
38435;SDS011;24220;48.168;14.024;2023-05-07T13:56:36;3.78;;;2.63;;
38435;SDS011;24220;48.168;14.024;2023-05-07T13:59:05;2.95;;;2.60;;
38435;SDS011;24220;48.168;14.024;2023-05-07T14:01:32;3.05;;;2.63;;
38435;SDS011;24220;48.168;14.024;2023-05-07T14:04:00;3.15;;;2.80;;
38435;SDS011;24220;48.168;14.024;2023-05-07T14:06:30;3.33;;;2.90;;
38435;SDS011;24220;48.168;14.024;2023-05-07T14:08:57;4.93;;;3.00;;
38435;SDS011;24220;48.168;14.024;2023-05-07T14:11:30;3.33;;;3.03;;
38435;SDS011;24220;48.168;14.024;2023-05-07T14:14:00;4.40;;;3.13;;
38435;SDS011;24220;48.168;14.024;2023-05-07T14:16:27;5.95;;;3.15;;
38435;SDS011;24220;48.168;14.024;2023-05-07T14:18:57;4.68;;;3.30;;
38435;SDS011;24220;48.168;14.024;2023-05-07T14:21:29;3.75;;;2.97;;
38435;SDS011;24220;48.168;14.024;2023-05-07T14:23:57;4.10;;;3.70;;
38435;SDS011;24220;48.168;14.024;2023-05-07T15:29:38;5.90;;;5.20;;
38435;SDS011;24220;48.168;14.024;2023-05-07T15:32:06;6.15;;;5.50;;
38435;SDS011;24220;48.168;14.024;2023-05-07T15:34:39;8.35;;;5.95;;
38435;SDS011;24220;48.168;14.024;2023-05-07T15:37:08;7.72;;;5.90;;
38435;SDS011;24220;48.168;14.024;2023-05-07T15:39:38;6.22;;;5.63;;
38435;SDS011;24220;48.168;14.024;2023-05-07T15:42:09;7.25;;;6.40;;
38435;SDS011;24220;48.168;14.024;2023-05-07T15:44:36;6.82;;;5.97;;
38435;SDS011;24220;48.168;14.024;2023-05-07T15:47:04;6.57;;;5.93;;
38435;SDS011;24220;48.168;14.024;2023-05-07T15:49:35;6.60;;;5.90;;
38435;SDS011;24220;48.168;14.024;2023-05-07T15:52:07;8.25;;;5.90;;
38435;SDS011;24220;48.168;14.024;2023-05-07T15:54:40;6.28;;;5.68;;
38435;SDS011;24220;48.168;14.024;2023-05-07T15:57:10;6.35;;;5.75;;
38435;SDS011;24220;48.168;14.024;2023-05-07T15:59:37;5.90;;;5.35;;
38435;SDS011;24220;48.168;14.024;2023-05-07T16:02:08;5.78;;;5.15;;
38435;SDS011;24220;48.168;14.024;2023-05-07T16:04:36;5.53;;;5.03;;
38435;SDS011;24220;48.168;14.024;2023-05-07T16:07:03;6.45;;;5.35;;
38435;SDS011;24220;48.168;14.024;2023-05-07T16:09:33;6.13;;;5.40;;
38435;SDS011;24220;48.168;14.024;2023-05-07T16:12:01;6.35;;;5.75;;
38435;SDS011;24220;48.168;14.024;2023-05-07T16:14:31;14.63;;;6.18;;
38435;SDS011;24220;48.168;14.024;2023-05-07T16:17:01;6.73;;;6.03;;
38435;SDS011;24220;48.168;14.024;2023-05-07T16:19:31;7.03;;;6.32;;
38435;SDS011;24220;48.168;14.024;2023-05-07T16:21:58;6.25;;;5.63;;